createdAt,value
2023-01-30T00:00:36.386Z,1005.64
2023-01-30T00:06:20.581Z,1005.57
2023-01-30T00:12:04.731Z,1005.49
2023-01-30T00:17:48.537Z,1005.47
2023-01-30T00:23:32.943Z,1005.6
2023-01-30T00:29:16.998Z,1005.58
2023-01-30T00:35:02.073Z,1005.18
2023-01-30T00:40:45.978Z,1005.14
2023-01-30T00:46:31.552Z,1005.02
2023-01-30T00:52:15.990Z,1004.87
2023-01-30T00:57:59.860Z,1004.87
2023-01-30T01:03:43.775Z,1004.78
2023-01-30T01:09:27.408Z,1004.82
2023-01-30T01:15:12.320Z,1004.89
2023-01-30T01:20:57.084Z,1004.88
2023-01-30T01:26:41.425Z,1005.02
2023-01-30T01:32:25.721Z,1004.98
2023-01-30T01:38:09.618Z,1005.03
2023-01-30T01:44:07.452Z,1005.09
2023-01-30T01:49:51.334Z,1004.94
2023-01-30T01:55:37.214Z,1004.77
2023-01-30T02:01:21.729Z,1004.81
2023-01-30T02:07:06.083Z,1004.81
2023-01-30T02:12:51.269Z,1004.6
2023-01-30T02:18:36.707Z,1004.57
2023-01-30T02:24:31.720Z,1004.62
2023-01-30T02:30:27.132Z,1004.49
2023-01-30T02:36:16.232Z,1004.53
2023-01-30T02:42:05.564Z,1004.48
2023-01-30T02:47:54.361Z,1004.55
2023-01-30T02:53:38.600Z,1004.54
2023-01-30T02:59:27.505Z,1004.32
2023-01-30T03:05:30.501Z,1004.07
2023-01-30T03:11:14.881Z,1003.68
2023-01-30T03:16:59.937Z,1003.7
2023-01-30T03:22:43.908Z,1003.74
2023-01-30T03:28:28.933Z,1003.82
2023-01-30T03:34:12.982Z,1003.77
2023-01-30T03:39:57.759Z,1003.89
2023-01-30T03:45:41.383Z,1003.85
2023-01-30T03:51:25.168Z,1003.74
2023-01-30T03:57:09.214Z,1003.72
2023-01-30T04:02:53.110Z,1003.77
2023-01-30T04:08:36.920Z,1003.79
2023-01-30T04:14:20.707Z,1003.85
2023-01-30T04:20:04.740Z,1003.77
2023-01-30T04:25:50.645Z,1003.71
2023-01-30T04:31:34.423Z,1003.87
2023-01-30T04:37:18.374Z,1003.76
2023-01-30T04:43:02.978Z,1003.61
2023-01-30T04:48:47.041Z,1003.59
2023-01-30T04:54:31.042Z,1003.55
2023-01-30T05:00:15.622Z,1003.4
2023-01-30T05:05:59.380Z,1003.36
2023-01-30T05:11:43.219Z,1003.19
2023-01-30T05:17:27.209Z,1003.3
2023-01-30T05:23:11.099Z,1003.33
2023-01-30T05:28:56.962Z,1003.38
2023-01-30T05:34:40.646Z,1003.41
2023-01-30T05:40:24.370Z,1003.26
2023-01-30T05:46:10.549Z,1003.29
2023-01-30T05:51:54.488Z,1003.39
2023-01-30T05:57:38.367Z,1003.41
2023-01-30T06:03:22.576Z,1003.48
2023-01-30T06:09:06.299Z,1003.55
2023-01-30T06:14:50.104Z,1003.44
2023-01-30T06:20:33.860Z,1003.65
2023-01-30T06:26:17.733Z,1003.73
2023-01-30T06:32:01.600Z,1003.76
2023-01-30T06:37:45.674Z,1003.76
2023-01-30T06:43:30.260Z,1003.8
2023-01-30T06:49:14.329Z,1003.85
2023-01-30T06:54:58.191Z,1003.92
2023-01-30T07:00:42.982Z,1004.08
2023-01-30T07:06:26.990Z,1004.13
2023-01-30T07:12:11.885Z,1004.3
2023-01-30T07:17:55.982Z,1004.21
2023-01-30T07:23:40.071Z,1004.17
2023-01-30T07:29:24.007Z,1004.28
2023-01-30T07:35:08.037Z,1004.23
2023-01-30T07:40:51.905Z,1004.16
2023-01-30T07:46:35.809Z,1004.18
2023-01-30T07:52:19.753Z,1004.29
2023-01-30T07:58:03.714Z,1004.37
2023-01-30T08:03:48.969Z,1004.46
2023-01-30T08:09:32.825Z,1004.43
2023-01-30T08:15:16.522Z,1004.51
2023-01-30T08:21:01.916Z,1004.41
2023-01-30T08:26:45.849Z,1004.4
2023-01-30T08:32:29.837Z,1004.32
2023-01-30T08:38:13.900Z,1004.5
2023-01-30T08:43:57.950Z,1004.71
2023-01-30T08:49:41.787Z,1004.73
2023-01-30T08:55:25.812Z,1004.83
2023-01-30T09:01:10.341Z,1004.82
2023-01-30T09:06:54.065Z,1004.79
2023-01-30T09:12:37.606Z,1004.9
2023-01-30T09:18:22.382Z,1005.04
2023-01-30T09:24:06.615Z,1005.13
2023-01-30T09:29:50.333Z,1005.26
2023-01-30T09:35:34.334Z,1005.12
2023-01-30T09:41:32.604Z,1005.25
2023-01-30T09:47:21.267Z,1005.37
2023-01-30T09:53:06.909Z,1005.35
2023-01-30T09:58:52.550Z,1005.38
2023-01-30T10:04:48.799Z,1005.41
2023-01-30T10:10:46.735Z,1005.63
2023-01-30T10:16:44.183Z,1005.66
2023-01-30T10:22:35.981Z,1005.67
2023-01-30T10:28:23.369Z,1005.7
2023-01-30T10:34:10.659Z,1005.82
2023-01-30T10:39:59.467Z,1005.7
2023-01-30T10:45:46.744Z,1005.64
2023-01-30T10:51:40.659Z,1005.55
2023-01-30T10:57:27.033Z,1005.63
2023-01-30T11:03:21.902Z,1005.8
2023-01-30T11:09:05.757Z,1005.82
2023-01-30T11:15:00.695Z,1005.73
2023-01-30T11:20:48.938Z,1005.78
2023-01-30T11:26:46.955Z,1005.81
2023-01-30T11:32:31.513Z,1005.69
2023-01-30T11:38:21.654Z,1005.72
2023-01-30T11:44:05.980Z,1005.79
2023-01-30T11:49:56.293Z,1005.66
2023-01-30T11:56:05.629Z,1005.68
2023-01-30T12:02:00.764Z,1005.64
2023-01-30T12:07:45.470Z,1005.37
2023-01-30T12:13:33.698Z,1005.39
2023-01-30T12:19:21.257Z,1005.38
2023-01-30T12:25:10.433Z,1005.47
2023-01-30T12:30:56.760Z,1005.48
2023-01-30T12:36:45.434Z,1005.54
2023-01-30T12:42:41.015Z,1005.48
2023-01-30T12:49:02.625Z,1005.55
2023-01-30T12:54:55.138Z,1005.56
2023-01-30T13:00:45.904Z,1005.56
2023-01-30T13:06:37.843Z,1005.49
2023-01-30T13:12:27.130Z,1005.53
2023-01-30T13:18:14.983Z,1005.6
2023-01-30T13:24:06.218Z,1005.55
2023-01-30T13:29:50.482Z,1005.6
2023-01-30T13:35:37.172Z,1005.53
2023-01-30T13:41:21.663Z,1005.52
2023-01-30T13:47:11.444Z,1005.55
2023-01-30T13:53:00.463Z,1005.66
2023-01-30T13:58:48.110Z,1005.77
2023-01-30T14:04:42.831Z,1005.92
2023-01-30T14:10:27.907Z,1005.99
2023-01-30T14:16:13.146Z,1006.13
2023-01-30T14:22:01.255Z,1006.13
2023-01-30T14:27:45.118Z,1006.21
2023-01-30T14:33:42.854Z,1006.29
2023-01-30T14:39:47.985Z,1006.39
2023-01-30T14:45:44.222Z,1006.48
2023-01-30T14:51:34.762Z,1006.67
2023-01-30T14:57:22.188Z,1006.68
2023-01-30T15:03:09.165Z,1006.7
2023-01-30T15:08:53.274Z,1006.76
2023-01-30T15:14:41.454Z,1006.9
2023-01-30T15:20:39.110Z,1007.09
2023-01-30T15:26:29.329Z,1007.17
2023-01-30T15:32:20.470Z,1007.27
2023-01-30T15:38:04.419Z,1007.39
2023-01-30T15:43:59.779Z,1007.46
2023-01-30T15:49:55.396Z,1007.52
2023-01-30T15:55:39.367Z,1007.52
2023-01-30T16:01:24.093Z,1007.63
2023-01-30T16:07:23.564Z,1007.74
2023-01-30T16:13:09.538Z,1007.83
2023-01-30T16:18:56.694Z,1007.84
2023-01-30T16:24:44.306Z,1008.01
2023-01-30T16:30:29.974Z,1008.1
2023-01-30T16:36:25.269Z,1008.26
2023-01-30T16:42:21.298Z,1008.39
2023-01-30T16:48:11.077Z,1008.46
2023-01-30T16:53:57.739Z,1008.52
2023-01-30T16:59:41.513Z,1008.68
2023-01-30T17:05:26.656Z,1008.67
2023-01-30T17:11:11.875Z,1008.76
2023-01-30T17:17:06.109Z,1008.87
2023-01-30T17:22:51.295Z,1008.87
2023-01-30T17:28:35.097Z,1008.97
2023-01-30T17:34:18.844Z,1009.01
2023-01-30T17:40:02.656Z,1009.15
2023-01-30T17:45:47.518Z,1009.22
2023-01-30T17:51:31.797Z,1009.26
2023-01-30T17:57:15.790Z,1009.41
2023-01-30T18:02:59.929Z,1009.5
2023-01-30T18:08:44.805Z,1009.58
2023-01-30T18:14:29.805Z,1009.58
2023-01-30T18:20:15.727Z,1009.67
2023-01-30T18:26:00.512Z,1009.81
2023-01-30T18:31:44.724Z,1009.93
2023-01-30T18:37:29.925Z,1009.93
2023-01-30T18:43:14.881Z,1009.92
2023-01-30T18:48:59.190Z,1010.02
2023-01-30T18:54:43.444Z,1010.08
2023-01-30T19:00:27.934Z,1010.02
2023-01-30T19:06:13.176Z,1010.06
2023-01-30T19:11:57.086Z,1010.15
2023-01-30T19:17:40.989Z,1010.32
2023-01-30T19:23:26.112Z,1010.39
2023-01-30T19:29:10.302Z,1010.53
2023-01-30T19:34:54.192Z,1010.62
2023-01-30T19:40:40.331Z,1010.57
2023-01-30T19:46:24.283Z,1010.7
2023-01-30T19:52:08.615Z,1010.73
2023-01-30T19:57:52.673Z,1010.7
2023-01-30T20:03:36.858Z,1010.76
2023-01-30T20:09:20.548Z,1010.84
2023-01-30T20:15:04.577Z,1010.79
2023-01-30T20:20:48.317Z,1010.77
2023-01-30T20:26:33.100Z,1010.84
2023-01-30T20:32:17.182Z,1010.8
2023-01-30T20:38:01.556Z,1010.74
2023-01-30T20:43:47.842Z,1010.79
2023-01-30T20:49:31.788Z,1010.83
2023-01-30T20:55:15.725Z,1010.72
2023-01-30T21:01:06.033Z,1010.68
2023-01-30T21:06:49.813Z,1010.8
2023-01-30T21:12:34.004Z,1010.75
2023-01-30T21:18:17.680Z,1010.68
2023-01-30T21:24:02.619Z,1010.58
2023-01-30T21:29:46.279Z,1010.53
2023-01-30T21:35:30.247Z,1010.72
2023-01-30T21:41:15.731Z,1010.75
2023-01-30T21:46:59.521Z,1010.73
2023-01-30T21:52:43.288Z,1010.62
2023-01-30T21:58:32.440Z,1010.66
2023-01-30T22:04:16.278Z,1010.65
2023-01-30T22:10:00.250Z,1010.67
2023-01-30T22:15:44.030Z,1010.66
2023-01-30T22:21:28.962Z,1010.63
2023-01-30T22:27:13.082Z,1010.64
2023-01-30T22:32:57.697Z,1010.6
2023-01-30T22:38:42.745Z,1010.63
2023-01-30T22:44:26.652Z,1010.7
2023-01-30T22:50:11.342Z,1010.68
2023-01-30T22:55:55.254Z,1010.77
2023-01-30T23:01:40.922Z,1010.7
2023-01-30T23:07:24.465Z,1010.72
2023-01-30T23:13:08.271Z,1010.64
2023-01-30T23:18:52.213Z,1010.7
2023-01-30T23:24:36.647Z,1010.77
2023-01-30T23:30:23.309Z,1010.63
2023-01-30T23:36:09.218Z,1010.5
2023-01-30T23:41:53.084Z,1010.51
2023-01-30T23:47:37.820Z,1010.6
2023-01-30T23:53:22.129Z,1010.62
2023-01-30T23:59:06.804Z,1010.42
